LEBA/ODB METAR and TAF weather

Enter ICAO airport designator
Station Type Date Time Source
LEBA METAR 2020/07/10 22:30 UTC NOAA

LEBA 102230Z AUTO 26006KT 220V290 CAVOK 29/15 Q1011


Station Type Date Time Source
LEBA Decoded METAR 2020/07/10 22:30 UTC NOAA

Cordoba / Aeropuerto, Spain (LEBA) 37-51N 004-51W 92M
Jul 10, 2020 - 06:30 PM EDT / 2020.07.10 2230 UTC
Wind: from the W (260 degrees) at 7 MPH (6 KT) (direction variable):0
Visibility: greater than 7 mile(s):0
Temperature: 84 F (29 C)
Dew Point: 59 F (15 C)
Relative Humidity: 42%
Pressure (altimeter): 29.85 in. Hg (1011 hPa)
ob: LEBA 102230Z AUTO 26006KT 220V290 CAVOK 29/15 Q1011
cycle: 22

Station Type Date Time Source
LEBA TAF 2015/01/24 09:27 UTC NOAA

TAF TAF LEBA 240800Z 2409/2421 VRB02KT CAVOK

Example: see airport list